Statesboro, GA

2:02 AM EDT on July 31, 2014 (GMT -0400)
Claxton-Evans County (KCWV) Elev 112 ft | 32.20 °N, 81.87 °W | Change Station

Current weather conditions updated 7 minutes ago

Clear
Clear
73 °F
Feels Like 73 °F
N
0
Wind Variable Wind from North

Today is forecast to be Cooler than yesterday. Afternoon thunderstorms.

Today
High -- | Low -- °F
--% Chance of Precip.
Yesterday
High -- | Low -- °F
Precip. -- in
6:40 AM 8:25 PM
Waxing Crescent, 16% visible
Pressure 30.00 in
Visibility 7.0 miles
Clouds Clear
Dew Point 73 °F
Humidity 100%
Rainfall 0.00 in
Snow Depth Not available.
UV 0 out of 12
Pollen 3.70 out of 12
Air Quality Not available.
Flu Activity Not available.
METAR KCWV 310555Z AUTO 00000KT 7SM CLR 23/23 A3000 RMK AO2

More Conditions Fewer Conditions

Pressure 30.00 in
Visibility 7.0 miles
Clouds Clear
Dew Point 73 °F
Humidity 100%
Rainfall 0.00 in
Snow Depth Not available.
UV 0 out of 12
Pollen 3.70 out of 12
Air Quality Not available.
Flu Activity Not available.
METAR KCWV 310555Z AUTO 00000KT 7SM CLR 23/23 A3000 RMK AO2

More Conditions Fewer Conditions

10-Day Weather Forecast

Almanac

Astronomy

Jul. 31, 2014 Rise Set
Actual Time 6:40 AM EDT 8:25 PM EDT
Civil Twilight 6:14 AM EDT 8:52 PM EDT
Nautical Twilight 5:41 AM EDT 9:24 PM EDT
Astronomical Twilight 5:07 AM EDT 9:58 PM EDT
Moon 10:49 AM EDT 10:57 PM EDT
Length of Visible Light 14h 38m
Length of Day
13h 44m
Tomorrow will be 1m 29s shorter.
Waxing Crescent, 16% of the Moon is Illuminated
Today
Waxing Crescent
Aug 3
First Quarter
Aug 10
Full
Aug 17
Last Quarter
Aug 25
New

Today's Extremes

State Highs State Lows

Community

WunderPhotos

Upload Photos

1,739,251 photos uploaded!

Nearby

Snow Depth

Station Depth Elevation
No new snow has been reported.

Earthquake Activity

City Distance Mag. Time & Date
No recent earthquake activity has been reported nearby.
Minimum magnitude displayed is 2.5.

Coastal Water Temperatures

Place Temperature
No Stations Reporting

Nearby Weather Stations

Station Location Temp. Heat Index Dew Point Humidity Wind Precip. Elev Updated Type
RAWS METTER GA, Metter, GA 75 °F 75 °F 71 °F 86% ESE  at  2 mph 0.00 in / hr 198 ft 1:03 AM EDT MADIS
Hope Street, Metter, GA 72.4 °F 70 °F 69 °F 88% NE  at  0.0 mph 0.00 in / hr 211 ft 2:02 AM EDT Rapid Fire
Georgia Gold, Pembroke, GA 70.0 °F - 70 °F 100% ENE  at  3.0 mph 0.00 in / hr 93 ft 2:00 AM EDT Normal
Stilson-Ellabell, Brooklet, GA 72.9 °F 73 °F 66 °F 80% ESE  at  0.0 mph 0.00 in / hr 95 ft 2:02 AM EDT Normal

Show More Stations Show Fewer Stations